createdAt,value
2023-10-31T05:31:29.553Z,99058.28
2023-10-31T05:35:32.727Z,99055.19
2023-10-31T05:39:38.044Z,99052.16
2023-10-31T05:43:43.197Z,99075.78
2023-10-31T05:47:46.008Z,99089.59
2023-10-31T05:51:55.219Z,99114.03
2023-10-31T05:55:58.003Z,99112.78
2023-10-31T06:00:01.131Z,99125.47
2023-10-31T06:04:04.375Z,99124.28
2023-10-31T06:08:07.464Z,99125.94
2023-10-31T06:12:10.382Z,99123.50
2023-10-31T06:16:13.472Z,99111.69
2023-10-31T06:20:16.277Z,99096.22
2023-10-31T06:24:19.414Z,99091.09
2023-10-31T06:28:23.571Z,99085.19
2023-10-31T06:32:27.375Z,99083.97
2023-10-31T06:36:30.128Z,99092.72
2023-10-31T06:40:33.246Z,99081.09
2023-10-31T06:44:36.017Z,99083.16
2023-10-31T06:48:39.091Z,99079.22
2023-10-31T06:52:42.785Z,99070.66
2023-10-31T06:56:45.843Z,99068.78
2023-10-31T07:00:49.192Z,99056.94
2023-10-31T07:04:52.275Z,99056.09
2023-10-31T07:08:55.462Z,99051.78
2023-10-31T07:12:59.918Z,99059.31
2023-10-31T07:17:02.629Z,99046.09
2023-10-31T07:21:06.035Z,99035.50
2023-10-31T07:25:09.262Z,99049.13
2023-10-31T07:29:12.908Z,99052.53
2023-10-31T07:33:15.740Z,99051.00
2023-10-31T07:37:18.867Z,99042.16
2023-10-31T07:41:21.713Z,99052.38
2023-10-31T07:45:24.770Z,99057.75
2023-10-31T07:49:27.495Z,99045.31
2023-10-31T07:53:31.865Z,99046.22
2023-10-31T07:57:34.945Z,99045.16
2023-10-31T08:01:38.604Z,99045.78
2023-10-31T08:05:41.785Z,99036.12
2023-10-31T08:09:44.557Z,99034.53
2023-10-31T08:13:47.931Z,99041.03
2023-10-31T08:17:51.127Z,99051.72
2023-10-31T08:21:56.441Z,99048.16
2023-10-31T08:25:59.780Z,99046.06
2023-10-31T08:30:03.910Z,99048.34
2023-10-31T08:34:06.828Z,99052.72
2023-10-31T08:38:18.302Z,99054.84
2023-10-31T08:42:26.917Z,99048.56
2023-10-31T08:46:29.905Z,99047.34
2023-10-31T08:50:32.633Z,99030.69
2023-10-31T08:54:35.711Z,99028.91
2023-10-31T08:58:38.472Z,99022.72
2023-10-31T09:02:41.484Z,99011.59
2023-10-31T09:06:44.236Z,98995.94
2023-10-31T09:10:48.025Z,98991.09
2023-10-31T09:14:50.741Z,99001.31
2023-10-31T09:18:53.779Z,98989.31
2023-10-31T09:22:56.601Z,98973.22
2023-10-31T09:26:59.944Z,98966.44
2023-10-31T09:31:03.652Z,98975.19
2023-10-31T09:35:09.707Z,98977.13
2023-10-31T09:39:12.578Z,98972.56
2023-10-31T09:43:15.661Z,98953.59
2023-10-31T09:47:18.805Z,98950.34
2023-10-31T09:51:22.837Z,98950.66
2023-10-31T09:55:25.566Z,98936.13
2023-10-31T09:59:28.773Z,98933.06
2023-10-31T10:03:31.922Z,98918.31
2023-10-31T10:07:36.890Z,98919.88
2023-10-31T10:11:40.532Z,98916.69
2023-10-31T10:15:50.557Z,98909.84
2023-10-31T10:20:11.522Z,98899.25
2023-10-31T10:24:15.894Z,98879.09
2023-10-31T10:28:20.683Z,98874.84
2023-10-31T10:32:23.830Z,98867.13
2023-10-31T10:36:26.896Z,98848.75
2023-10-31T10:40:30.158Z,98833.28
2023-10-31T10:44:35.268Z,98830.97
2023-10-31T10:48:41.172Z,98821.84
2023-10-31T10:52:50.397Z,98820.13
2023-10-31T10:57:01.296Z,98799.00
2023-10-31T11:01:05.823Z,98792.75
2023-10-31T11:05:09.827Z,98792.88
2023-10-31T11:09:14.544Z,98777.72
2023-10-31T11:13:17.865Z,98764.78
2023-10-31T11:17:30.389Z,98750.53
2023-10-31T11:21:35.883Z,98696.91
2023-10-31T11:25:45.345Z,98702.00
2023-10-31T11:29:48.602Z,98721.00
2023-10-31T11:33:53.109Z,98712.31
2023-10-31T11:38:19.391Z,98689.06
2023-10-31T11:42:22.143Z,98668.84
2023-10-31T11:46:27.328Z,98654.81
2023-10-31T11:50:36.567Z,98639.50
2023-10-31T11:54:57.413Z,98631.94
2023-10-31T11:59:04.716Z,98620.44
2023-10-31T12:03:07.880Z,98624.69
2023-10-31T12:07:10.994Z,98629.91
2023-10-31T12:11:21.961Z,98612.63
2023-10-31T12:15:27.304Z,98591.34
2023-10-31T12:19:30.844Z,98596.44
2023-10-31T12:23:34.159Z,98615.41
2023-10-31T12:27:47.613Z,98590.19
2023-10-31T12:31:53.830Z,98576.37
2023-10-31T12:36:01.466Z,98574.72
2023-10-31T12:40:05.555Z,98619.47
2023-10-31T12:44:11.899Z,98728.81
2023-10-31T12:48:15.105Z,98873.56
2023-10-31T12:52:17.903Z,98915.75
2023-10-31T12:56:42.565Z,98945.09
2023-10-31T13:00:47.256Z,98953.56
2023-10-31T13:04:50.602Z,98935.44
2023-10-31T13:08:53.415Z,98926.87
2023-10-31T13:12:57.419Z,98924.69
2023-10-31T13:17:00.752Z,98906.31
2023-10-31T13:21:04.043Z,98912.22
2023-10-31T13:25:12.237Z,98947.22
2023-10-31T13:29:15.244Z,98922.22
2023-10-31T13:33:17.994Z,98941.63
2023-10-31T13:37:22.230Z,98921.09
2023-10-31T13:41:25.263Z,98968.31
2023-10-31T13:45:28.300Z,98976.19
2023-10-31T13:49:31.004Z,99006.84
2023-10-31T13:53:34.066Z,99016.06
2023-10-31T13:57:37.241Z,99047.81
2023-10-31T14:01:41.315Z,99052.94
2023-10-31T14:05:44.825Z,99001.63
2023-10-31T14:09:49.365Z,98996.09
2023-10-31T14:13:53.366Z,98999.03
2023-10-31T14:17:56.184Z,98964.50
2023-10-31T14:21:59.228Z,98876.28
2023-10-31T14:26:02.157Z,98850.22
2023-10-31T14:30:05.803Z,98830.22
2023-10-31T14:34:08.678Z,98820.22
2023-10-31T14:38:11.978Z,98771.44
2023-10-31T14:42:15.198Z,98835.13
2023-10-31T14:46:18.512Z,98847.41
2023-10-31T14:50:22.167Z,98852.28
2023-10-31T14:54:26.567Z,98896.91
2023-10-31T14:58:29.363Z,98893.88
2023-10-31T15:02:32.530Z,98843.25
2023-10-31T15:06:35.431Z,98871.34
2023-10-31T15:10:38.462Z,98918.59
2023-10-31T15:14:41.239Z,98919.47
2023-10-31T15:18:45.629Z,98947.69
2023-10-31T15:22:50.277Z,98968.84
